Terminal Aerodrome Forecast
Issued by NWS

Current Version | Previous Version | Text Only | Print | Product List | Glossary On
Versions: 1 2 3 4 5 6 7 8 9 10 11 12 13 14 15
000
FTUS45 KTFX 031120
TAFLWT
TAF
KLWT 031120Z 0312/0412 12007KT 5SM HZ SCT080 BKN120
     FM031800 09007KT P6SM SCT080 SCT250
     FM040300 14006KT P6SM SKC=

USA.gov is the U.S. government's official web portal to all federal, state and local government web resources and services.